Terminal Aerodrome Forecast
Issued by NWS

Home | Current Version | Previous Version | Text Only | Print | Product List | Glossary On
Versions: 1 2 3 4 5 6 7 8 9 10 11 12 13 14 15
000
FTUS43 KGRB 131700
TAFCWA
TAF
KCWA 131734Z 1318/1418 29012G18KT P6SM SCT050
      TEMPO 1320/1324 BKN050
     FM140000 28007KT P6SM SCT040 SCT100
     FM141400 29010KT P6SM SCT030 BKN050
      TEMPO 1414/1418 5SM -SHRA OVC030=

USA.gov is the U.S. government's official web portal to all federal, state and local government web resources and services.